• Join FlightAware (Why Join?)
  • Login
  • US Flag 
03:20PM EDT


 

Airport Tracker/Info


-or-


 

Live Flight TrackerFlight Track Log ✈ ELJ642 ✈ 04-Aug-2013 ✈ KMDW - CYYZ

Flight Track Log - Related Links

Times and Time Zones

All times are in EDT time to prevent confusion due to time zone crossing. See the ELJ642 flight status page for this flight to view local times or setup timezone preferences in your user account.

Time Position Orientation Groundspeed Altitude Reporting Facility
EDT Latitude Longitude Course Direction KTS MPH feet Rate Location/Type
01:12PM 41.7983 -87.6667 98° East 237 273 3,500  Level Chicago Center
01:13PM 41.7958 -87.5681 92° East 252 290 5,000 1,560 Climbing Chicago Center
01:14PM 41.8053 -87.4653 83° East 271 312 6,800 2,280 Climbing Chicago Center
01:15PM 41.7958 -87.3572 97° East 291 335 9,800 3,120 Climbing Chicago Center
01:16PM 41.7800 -87.2244 99° East 300 345 13,300 3,120 Climbing Chicago Center
01:17PM 41.7553 -87.1031 98° East  Level FlightAware Approximate
01:17PM 41.7664 -87.1119 99° East 305 351 16,300  Level Chicago Center
01:18PM 41.7628 -86.9992 92° East 307 353 18,100 1,800 Climbing Chicago Center
01:19PM 41.7636 -86.8789 89° East 322 371 20,100 1,920 Climbing Chicago Center
01:20PM 41.7639 -86.7525 90° East 338 389 22,100 2,040 Climbing Chicago Center
01:21PM 41.7658 -86.6078 89° East 344 396 24,400 2,040 Climbing Chicago Center
01:22PM 41.7672 -86.4778 89° East 350 403 26,400 1,800 Climbing Chicago Center
01:23PM 41.7925 -86.3617 74° East 327 376 28,200 1,380 Climbing Chicago Center
01:25PM 41.8208 -86.2422 72° East 335 386 29,300 960 Climbing Chicago Center
01:26PM 41.8506 -86.1144 73° East 356 410 30,300 1,020 Climbing Chicago Center
01:27PM 41.8886 -85.9522 72° East 378 435 31,500 900 Climbing Chicago Center
01:28PM 41.9217 -85.8086 73° East 398 458 32,200 660 Climbing Chicago Center
01:29PM 41.9567 -85.6572 73° East 416 479 32,900 660 Climbing Chicago Center
01:30PM 41.9931 -85.4997 73° East 431 496 33,600 660 Climbing Chicago Center
01:31PM 42.0325 -85.3272 73° East 442 509 34,300 660 Climbing Chicago Center
01:32PM 42.0697 -85.1650 73° East 454 522 35,000 300 Climbing Chicago Center
01:33PM 42.1056 -85.0006 74° East 459 528 35,000  Level Chicago Center
01:34PM 42.1411 -84.8372 74° East 458 527 35,000  Level Chicago Center
01:35PM 42.1775 -84.6764 73° East 454 522 35,000  Level Chicago Center
01:36PM 42.2189 -84.4883 73° East 441 507 35,000  Level Chicago Center
01:37PM 42.2533 -84.3228 74° East 430 495 35,000  Level Cleveland Center
01:38PM 42.2856 -84.1647 75° East 435 501 35,000  Level Cleveland Center
01:39PM 42.3194 -84.0094 74° East 430 495 35,000  Level Cleveland Center
01:40PM 42.3533 -83.8511 74° East 430 495 35,000  Level Cleveland Center
01:41PM 42.3869 -83.6953 74° East 430 495 35,000  Level Cleveland Center
01:42PM 42.4200 -83.5394 74° East 430 495 35,000 -120 Level Cleveland Center
01:43PM 42.4589 -83.4061 68° East 425 489 34,800 -660 Descending Cleveland Center
01:44PM 42.4911 -83.2753 71° East 401 461 33,700 -1,140 Descending Cleveland Center
01:45PM 42.5275 -83.1469 69° East 378 435 32,600 -1,020 Descending Cleveland Center
01:46PM 42.5592 -83.0300 70° East 355 409 31,700 -960 Descending Cleveland Center
01:47PM 42.5908 -82.9069 71° East 344 396 30,700 -1,080 Descending Cleveland Center
01:48PM 42.6247 -82.7814 70° East 344 396 29,600 -1,080 Descending Cleveland Center
01:49PM 42.6561 -82.6553 71° East 344 396 28,600 -1,080 Descending Cleveland Center
01:50PM 42.6897 -82.5294 70° East 344 396 27,500 -840 Descending Cleveland Center
01:51PM 42.7231 -82.4061 70° East 344 396 27,000 -300 Descending Cleveland Center
01:52PM 42.7542 -82.2797 71° East 344 396 27,000  Level Cleveland Center
01:53PM 42.7850 -82.1533 72° East 344 396 27,000  Level Cleveland Center
01:54PM 42.8181 -82.0239 71° East 344 396 27,000  Level Cleveland Center
01:55PM 42.8486 -81.8972 72° East 344 396 27,000  Level Cleveland Center
01:57PM 42.9000 -81.6833 72° East 350 403 27,000 -60 Level Toronto Center
01:58PM 42.9500 -81.5667 60° Northeast 340 391 26,900 -840 Descending Toronto Center
01:59PM 42.9833 -81.4500 69° East 330 380 25,400 -1,560 Descending Toronto Center
02:00PM 43.0333 -81.3500 56° Northeast 320 368 23,800 -1,560 Descending Toronto Center
02:01PM 43.0833 -81.2500 56° Northeast 320 368 22,300 -1,500 Descending Toronto Center
02:02PM 43.1167 -81.1333 69° East 320 368 20,800 -1,620 Descending Toronto Center
02:03PM 43.1667 -81.0500 51° Northeast 300 345 19,100 -1,500 Descending Toronto Center
02:04PM 43.2333 -81.0333 10° North 270 311 17,800 -1,500 Descending Toronto Center
02:05PM 43.3167 -81.0000 16° North 260 299 16,200 -1,620 Descending Toronto Center
02:06PM 43.3833 -80.9833 10° North 260 299 14,600 -1,620 Descending Toronto Center
02:07PM 43.4500 -80.9500 20° North 250 288 13,000 -1,500 Descending Toronto Center
02:08PM 43.4667 -80.8500 77° East 270 311 11,600 -1,200 Descending Toronto Center
02:09PM 43.4667 -80.7333 90° East 270 311 10,600 -960 Descending Toronto Center
02:10PM 43.4667 -80.6500 90° East 270 311 9,700 -900 Descending Toronto Center
02:11PM 43.4667 -80.5333 90° East 270 311 8,800 -960 Descending Toronto Center
02:12PM 43.4500 -80.4333 103° East 260 299 7,800 -900 Descending Toronto Center
02:13PM 43.4500 -80.3500 90° East 260 299 7,000 -420 Descending Toronto Center
02:14PM 43.4667 -80.2333 79° East 260 299 7,000  Level Toronto Center
02:15PM 43.4833 -80.1333 77° East 250 288 7,000 -300 Level Toronto Center
02:16PM 43.4500 -80.0667 125° Southeast 240 276 6,500 -540 Descending Toronto Center
02:17PM 43.4333 -80.0000 109° East 230 265 6,000 -600 Descending Toronto Center
02:18PM 43.4667 -79.9333 55° Northeast 200 230 5,400 -540 Descending Toronto Center
02:19PM 43.5000 -79.8833 47° Northeast 180 207 5,000 -540 Descending Toronto Center
02:20PM 43.5333 -79.8333 47° Northeast 180 207 4,400 -900 Descending Toronto Center
02:21PM 43.5667 -79.8000 36° Northeast 170 196 3,300 -960 Descending Toronto Center
02:22PM 43.6000 -79.7500 47° Northeast 170 196 2,500 -840 Descending Toronto Center
02:23PM 43.6333 -79.7000 47° Northeast 160 184 1,700 -780 Descending Toronto Center
02:24PM 43.6500 -79.6500 65° Northeast 130 150 1,000 -600 Descending Toronto Center
02:25PM 43.6667 -79.6333 36° Northeast 120 138 500 -240 Descending Toronto Center
02:26PM 43.6833 -79.6167 36° Northeast 40 46 600 60 Climbing Toronto Center